Flight Track Log - Related Links

Times and Time Zones

All times are in EDT time to prevent confusion due to time zone crossing. See the UAL4612 flight status page for this flight to view local times or setup timezone preferences in your user account.

Time Position Orientation Groundspeed Altitude Reporting Facility
EDT Latitude Longitude Course Direction KTS MPH feet Rate Location/Type
Mon 09:05:38 AM 42.0167 -87.8833 75° East 157 181 2,100  Level Chicago TRACON
Mon 09:06:32 AM 42.0333 -87.8333 66° East 206 237 3,100 1,683 Climbing Chicago TRACON
Mon 09:07:57 AM 42.0650 -87.7122 71° East 241 277 6,000 2,245 Climbing Chicago Center
Mon 09:08:59 AM 42.0814 -87.6147 77° East 253 291 8,600 2,323 Climbing Chicago Center
Mon 09:09:00 AM 42.0675 -87.2535 78° East  Level FlightAware Approximate
Mon 09:10:00 AM 42.0953 -87.0903 75° East  Level FlightAware Approximate
Mon 09:10:01 AM 42.0856 -87.5147 87° East 266 306 10,800  Level Chicago Center
Mon 09:11:03 AM 42.0919 -87.4111 85° East 277 319 13,000 1,790 Climbing Chicago Center
Mon 09:12:05 AM 42.1011 -87.2947 84° East 291 335 14,500 1,548 Climbing Chicago Center
Mon 09:13:07 AM 42.1119 -87.1758 83° East 318 366 16,200 1,597 Climbing Chicago Center
Mon 09:14:09 AM 42.1219 -87.0544 84° East 325 374 17,800 1,355 Climbing Chicago Center
Mon 09:15:11 AM 42.1311 -86.9211 85° East 350 403 19,000 1,113 Climbing Chicago Center
Mon 09:16:13 AM 42.1422 -86.7842 84° East 366 421 20,100 1,161 Climbing Chicago Center
Mon 09:17:15 AM 42.1553 -86.6211 84° East 386 444 21,400 1,161 Climbing Chicago Center
Mon 09:18:17 AM 42.1672 -86.4694 84° East 401 461 22,500 1,161 Climbing Chicago Center
Mon 09:19:19 AM 42.1786 -86.3175 84° East 404 465 23,800 1,210 Climbing Chicago Center
Mon 09:20:21 AM 42.1903 -86.1653 84° East 405 466 25,000 1,016 Climbing Chicago Center
Mon 09:21:23 AM 42.2014 -86.0081 84° East 412 474 25,900 1,113 Climbing Chicago Center
Mon 09:22:25 AM 42.2139 -85.8333 84° East 418 481 27,300 1,210 Climbing Chicago Center
Mon 09:23:27 AM 42.2247 -85.6803 84° East 417 480 28,400 1,500 Climbing Chicago Center
Mon 09:24:29 AM 42.2353 -85.5383 84° East 387 445 30,400 1,258 Climbing Chicago Center
Mon 09:25:31 AM 42.2439 -85.3967 85° East 382 440 31,000 726 Climbing Chicago Center
Mon 09:26:33 AM 42.2564 -85.2081 85° East 419 482 31,900 871 Climbing Chicago Center
Mon 09:27:35 AM 42.2678 -85.0450 85° East 434 499 32,800 1,016 Climbing Chicago Center
Mon 09:28:37 AM 42.2786 -84.8797 85° East 440 506 34,000 1,113 Climbing Chicago Center
Mon 09:29:39 AM 42.2889 -84.7139 85° East 444 511 35,100 1,163 Climbing Chicago Center
Mon 09:30:15 AM 42.2953 -84.6172 85° East 436 502 35,900 796 Climbing Cleveland Center
Mon 09:31:17 AM 42.3042 -84.4531 86° East 435 501 36,400 484 Climbing Cleveland Center
Mon 09:32:19 AM 42.3133 -84.2853 86° East 442 509 36,900 290 Climbing Cleveland Center
Mon 09:33:21 AM 42.3247 -84.0769 86° East 460 529 37,000 48 Climbing Cleveland Center
Mon 09:34:23 AM 42.3350 -83.8964 86° East 476 548 37,000  Level Cleveland Center
Mon 09:35:26 AM 42.3450 -83.7072 86° East 497 572 37,000  Level Cleveland Center
Mon 09:36:28 AM 42.3547 -83.5106 86° East 506 582 37,000  Level Cleveland Center
Mon 09:37:30 AM 42.3647 -83.3222 86° East 504 580 37,000 -387 Level Cleveland Center
Mon 09:38:32 AM 42.3731 -83.1339 87° East 494 568 36,200 -823 Descending Cleveland Center
Mon 09:39:34 AM 42.3825 -82.9442 86° East 503 579 35,300 -919 Descending Cleveland Center
Mon 09:40:36 AM 42.3903 -82.7506 87° East 512 589 34,300 -871 Descending Cleveland Center
Mon 09:41:38 AM 42.4003 -82.5139 87° East 525 604 33,500 -823 Descending Cleveland Center
Mon 09:42:40 AM 42.4089 -82.3139 87° East 530 610 32,600 -919 Descending Cleveland Center
Mon 09:43:42 AM 42.4172 -82.1100 87° East 536 617 31,600 -919 Descending Cleveland Center
Mon 09:44:44 AM 42.4244 -81.9103 87° East 532 612 30,700 -919 Descending Cleveland Center
Mon 09:45:46 AM 42.4308 -81.7142 87° East 520 598 29,700 -919 Descending Cleveland Center
Mon 09:46:48 AM 42.4378 -81.5203 87° East 514 592 28,800 -1,210 Descending Cleveland Center
Mon 09:47:50 AM 42.4442 -81.3353 87° East 491 565 27,200 -1,742 Descending Cleveland Center
Mon 09:48:52 AM 42.4497 -81.1664 87° East 450 518 25,200 -2,081 Descending Cleveland Center
Mon 09:49:54 AM 42.4550 -80.9836 88° East 413 475 22,900 -1,887 Descending Cleveland Center
Mon 09:50:56 AM 42.4581 -80.8361 88° East 391 450 21,300 -1,366 Descending Cleveland Center
Mon 09:51:57 AM 42.4622 -80.6875 88° East 390 449 20,100 -1,171 Descending Cleveland Center
Mon 09:52:59 AM 42.4658 -80.5350 88° East 399 459 18,900 -1,161 Descending Cleveland Center
Mon 09:54:01 AM 42.4694 -80.3750 88° East 418 481 17,700 -1,161 Descending Cleveland Center
Mon 09:55:03 AM 42.4706 -80.2136 89° East 421 484 16,500 -1,113 Descending Cleveland Center
Mon 09:56:05 AM 42.4758 -80.0572 87° East 418 481 15,400 -1,161 Descending Cleveland Center
Mon 09:57:07 AM 42.4806 -79.8978 88° East 405 466 14,100 -1,210 Descending Cleveland Center
Mon 09:58:09 AM 42.4822 -79.7508 89° East 394 453 12,900 -1,113 Descending Cleveland Center
Mon 09:59:11 AM 42.4858 -79.6075 88° East 386 444 11,800 -919 Descending Cleveland Center
Mon 10:00:13 AM 42.5467 -79.4664 60° Northeast 392 451 11,000 -774 Descending Cleveland Center
Mon 10:01:15 AM 42.6267 -79.3831 37° Northeast 364 419 10,200 -1,016 Descending Cleveland Center
Mon 10:02:17 AM 42.6972 -79.3131 36° Northeast 299 344 8,900 -1,403 Descending Cleveland Center
Mon 10:03:19 AM 42.7633 -79.2453 37° Northeast 288 331 7,300 -919 Descending Cleveland Center
Mon 10:04:21 AM 42.8219 -79.1836 38° Northeast 283 326 7,000 -145 Descending Cleveland Center
Mon 10:05:23 AM 42.8700 -79.1108 48° Northeast 251 289 7,000 -290 Level Cleveland Center
Mon 10:06:25 AM 42.9178 -79.0400 47° Northeast 246 283 6,400 -732 Descending Cleveland Center
Mon 10:07:26 AM 42.9650 -78.9711 47° Northeast 242 278 5,500 -976 Descending Cleveland Center
Mon 10:08:28 AM 43.0006 -78.8956 57° Northeast 229 264 4,400 -726 Descending Cleveland Center
Mon 10:09:30 AM 43.0261 -78.8131 67° East 225 259 4,000 -339 Descending Cleveland Center
Mon 10:10:32 AM 43.0475 -78.7389 68° East 222 255 3,700 -581 Descending Cleveland Center
Mon 10:11:34 AM 43.0114 -78.6947 138° Southeast 172 198 2,800 -1,065 Descending Cleveland Center
Mon 10:12:36 AM 42.9733 -78.6883 173° South 156 180 1,500 -823 Descending Cleveland Center
Mon 10:13:38 AM 42.9447 -78.7225 221° Southwest 142 163 1,100 -387 Descending Cleveland Center

Login

Don't have an account? Register now (free) for customized features, flight alerts, and more!